sensor_id;sensor_type;location;lat;lon;timestamp;pressure;altitude;pressure_sealevel;temperature;humidity
113;BME280;45999;48.808;9.182;2024-03-02T00:00:07;96935.03;;;6.52;100.00
113;BME280;45999;48.808;9.182;2024-03-02T00:02:43;96928.44;;;6.43;100.00
113;BME280;45999;48.808;9.182;2024-03-02T00:05:12;96929.66;;;6.40;100.00
113;BME280;45999;48.808;9.182;2024-03-02T00:07:42;96940.38;;;6.45;100.00
113;BME280;45999;48.808;9.182;2024-03-02T00:10:10;96937.06;;;6.32;100.00
113;BME280;45999;48.808;9.182;2024-03-02T00:12:40;96937.38;;;6.42;100.00
113;BME280;45999;48.808;9.182;2024-03-02T00:18:01;96932.53;;;6.39;100.00
113;BME280;45999;48.808;9.182;2024-03-02T00:20:30;96931.19;;;6.30;100.00
113;BME280;45999;48.808;9.182;2024-03-02T00:23:04;96937.72;;;6.27;100.00
113;BME280;45999;48.808;9.182;2024-03-02T00:25:50;96931.06;;;6.25;100.00
113;BME280;45999;48.808;9.182;2024-03-02T00:28:25;96936.63;;;6.35;100.00
113;BME280;45999;48.808;9.182;2024-03-02T00:30:55;96939.41;;;6.22;100.00
113;BME280;45999;48.808;9.182;2024-03-02T00:33:21;96939.59;;;6.20;100.00
113;BME280;45999;48.808;9.182;2024-03-02T00:35:49;96940.72;;;6.13;100.00
113;BME280;45999;48.808;9.182;2024-03-02T00:38:16;96949.22;;;6.15;100.00
113;BME280;45999;48.808;9.182;2024-03-02T00:40:43;96947.59;;;6.14;100.00
113;BME280;45999;48.808;9.182;2024-03-02T00:43:44;96941.75;;;6.12;100.00
113;BME280;45999;48.808;9.182;2024-03-02T00:46:12;96943.34;;;6.13;100.00
113;BME280;45999;48.808;9.182;2024-03-02T00:48:53;96939.84;;;6.19;100.00
113;BME280;45999;48.808;9.182;2024-03-02T00:51:21;96941.59;;;6.07;100.00
113;BME280;45999;48.808;9.182;2024-03-02T00:53:48;96937.09;;;6.07;100.00
113;BME280;45999;48.808;9.182;2024-03-02T00:56:15;96933.25;;;6.10;100.00
113;BME280;45999;48.808;9.182;2024-03-02T00:58:42;96933.72;;;6.00;100.00
113;BME280;45999;48.808;9.182;2024-03-02T01:01:08;96935.69;;;6.05;100.00
113;BME280;45999;48.808;9.182;2024-03-02T01:03:35;96932.22;;;6.11;100.00
113;BME280;45999;48.808;9.182;2024-03-02T01:06:02;96942.47;;;6.01;100.00
113;BME280;45999;48.808;9.182;2024-03-02T01:08:29;96937.81;;;5.96;100.00
113;BME280;45999;48.808;9.182;2024-03-02T01:10:55;96937.75;;;6.03;100.00
113;BME280;45999;48.808;9.182;2024-03-02T01:13:22;96938.84;;;5.95;100.00
113;BME280;45999;48.808;9.182;2024-03-02T01:15:50;96932.97;;;5.93;100.00
113;BME280;45999;48.808;9.182;2024-03-02T01:18:16;96944.56;;;5.92;100.00
113;BME280;45999;48.808;9.182;2024-03-02T01:20:43;96943.00;;;5.85;100.00
113;BME280;45999;48.808;9.182;2024-03-02T01:23:09;96937.94;;;5.83;100.00
113;BME280;45999;48.808;9.182;2024-03-02T01:25:36;96939.56;;;5.78;100.00
113;BME280;45999;48.808;9.182;2024-03-02T01:28:03;96940.81;;;5.75;100.00
113;BME280;45999;48.808;9.182;2024-03-02T01:30:29;96937.00;;;5.71;100.00
113;BME280;45999;48.808;9.182;2024-03-02T01:32:56;96952.22;;;5.69;100.00
113;BME280;45999;48.808;9.182;2024-03-02T01:35:24;96937.28;;;5.63;100.00
113;BME280;45999;48.808;9.182;2024-03-02T01:37:51;96932.63;;;5.59;100.00
113;BME280;45999;48.808;9.182;2024-03-02T01:40:18;96939.81;;;5.52;100.00
113;BME280;45999;48.808;9.182;2024-03-02T01:42:45;96938.59;;;5.48;100.00
113;BME280;45999;48.808;9.182;2024-03-02T01:45:11;96941.63;;;5.51;100.00
113;BME280;45999;48.808;9.182;2024-03-02T01:47:38;96935.53;;;5.51;100.00
113;BME280;45999;48.808;9.182;2024-03-02T01:50:04;96943.25;;;5.46;100.00
113;BME280;45999;48.808;9.182;2024-03-02T01:52:31;96936.84;;;5.42;100.00
113;BME280;45999;48.808;9.182;2024-03-02T01:54:57;96935.19;;;5.41;100.00
113;BME280;45999;48.808;9.182;2024-03-02T01:57:24;96926.09;;;5.37;100.00
113;BME280;45999;48.808;9.182;2024-03-02T01:59:50;96925.25;;;5.43;100.00
113;BME280;45999;48.808;9.182;2024-03-02T02:02:17;96929.94;;;5.41;100.00
113;BME280;45999;48.808;9.182;2024-03-02T02:04:43;96931.41;;;5.30;100.00
113;BME280;45999;48.808;9.182;2024-03-02T02:07:09;96926.53;;;5.34;100.00
113;BME280;45999;48.808;9.182;2024-03-02T02:09:36;96927.63;;;5.26;100.00
113;BME280;45999;48.808;9.182;2024-03-02T02:12:03;96923.75;;;5.29;100.00
113;BME280;45999;48.808;9.182;2024-03-02T02:14:31;96918.84;;;5.32;100.00
113;BME280;45999;48.808;9.182;2024-03-02T02:16:58;96918.31;;;5.24;100.00
113;BME280;45999;48.808;9.182;2024-03-02T02:19:24;96921.56;;;5.19;100.00
113;BME280;45999;48.808;9.182;2024-03-02T02:21:51;96913.88;;;5.18;100.00
113;BME280;45999;48.808;9.182;2024-03-02T02:24:17;96910.22;;;5.19;100.00
113;BME280;45999;48.808;9.182;2024-03-02T02:26:43;96914.03;;;5.23;100.00
113;BME280;45999;48.808;9.182;2024-03-02T02:29:10;96912.97;;;5.30;100.00
113;BME280;45999;48.808;9.182;2024-03-02T02:31:42;96911.16;;;5.31;100.00
113;BME280;45999;48.808;9.182;2024-03-02T02:34:08;96908.59;;;5.18;100.00
113;BME280;45999;48.808;9.182;2024-03-02T02:36:37;96910.00;;;5.20;100.00
113;BME280;45999;48.808;9.182;2024-03-02T02:39:04;96900.66;;;5.24;100.00
113;BME280;45999;48.808;9.182;2024-03-02T02:41:32;96899.00;;;5.30;100.00
113;BME280;45999;48.808;9.182;2024-03-02T02:43:58;96895.00;;;5.21;100.00
113;BME280;45999;48.808;9.182;2024-03-02T02:46:25;96893.41;;;5.20;100.00
113;BME280;45999;48.808;9.182;2024-03-02T02:48:51;96888.34;;;5.18;100.00
113;BME280;45999;48.808;9.182;2024-03-02T02:51:18;96884.91;;;5.18;100.00
113;BME280;45999;48.808;9.182;2024-03-02T02:53:45;96892.00;;;5.17;100.00
113;BME280;45999;48.808;9.182;2024-03-02T02:56:11;96890.78;;;5.20;100.00
113;BME280;45999;48.808;9.182;2024-03-02T02:58:40;96890.97;;;5.18;100.00
113;BME280;45999;48.808;9.182;2024-03-02T03:01:06;96892.38;;;5.21;100.00
113;BME280;45999;48.808;9.182;2024-03-02T03:03:33;96887.75;;;5.16;100.00
113;BME280;45999;48.808;9.182;2024-03-02T03:06:00;96884.72;;;5.13;100.00
113;BME280;45999;48.808;9.182;2024-03-02T03:08:27;96885.75;;;5.12;100.00
113;BME280;45999;48.808;9.182;2024-03-02T03:10:53;96891.22;;;5.10;100.00
113;BME280;45999;48.808;9.182;2024-03-02T03:13:20;96894.25;;;5.14;100.00
113;BME280;45999;48.808;9.182;2024-03-02T03:15:46;96893.44;;;5.13;100.00
113;BME280;45999;48.808;9.182;2024-03-02T03:18:12;96893.03;;;5.10;100.00
113;BME280;45999;48.808;9.182;2024-03-02T03:20:39;96894.28;;;5.07;100.00
113;BME280;45999;48.808;9.182;2024-03-02T03:23:05;96894.06;;;5.09;100.00
113;BME280;45999;48.808;9.182;2024-03-02T03:25:32;96899.34;;;5.09;100.00
113;BME280;45999;48.808;9.182;2024-03-02T03:27:58;96898.44;;;4.97;100.00
113;BME280;45999;48.808;9.182;2024-03-02T03:30:26;96888.25;;;5.00;100.00
113;BME280;45999;48.808;9.182;2024-03-02T03:32:52;96889.53;;;4.91;100.00
113;BME280;45999;48.808;9.182;2024-03-02T03:35:18;96893.06;;;4.79;100.00
113;BME280;45999;48.808;9.182;2024-03-02T03:37:45;96897.69;;;4.83;100.00
113;BME280;45999;48.808;9.182;2024-03-02T03:40:11;96894.66;;;4.80;100.00
113;BME280;45999;48.808;9.182;2024-03-02T03:42:39;96894.00;;;4.84;100.00
113;BME280;45999;48.808;9.182;2024-03-02T03:45:06;96891.19;;;4.86;100.00
113;BME280;45999;48.808;9.182;2024-03-02T03:47:33;96891.03;;;4.74;100.00
113;BME280;45999;48.808;9.182;2024-03-02T03:49:59;96895.06;;;4.77;100.00
113;BME280;45999;48.808;9.182;2024-03-02T03:52:26;96894.47;;;4.81;100.00
113;BME280;45999;48.808;9.182;2024-03-02T03:54:52;96890.50;;;4.66;100.00
113;BME280;45999;48.808;9.182;2024-03-02T03:57:18;96888.06;;;4.64;100.00
113;BME280;45999;48.808;9.182;2024-03-02T03:59:45;96892.63;;;4.82;100.00
113;BME280;45999;48.808;9.182;2024-03-02T04:02:11;96894.09;;;4.71;100.00
113;BME280;45999;48.808;9.182;2024-03-02T04:04:38;96889.03;;;4.76;100.00
113;BME280;45999;48.808;9.182;2024-03-02T04:07:04;96893.88;;;4.73;100.00
113;BME280;45999;48.808;9.182;2024-03-02T04:09:31;96889.63;;;4.72;100.00
113;BME280;45999;48.808;9.182;2024-03-02T04:11:57;96891.09;;;4.61;100.00
113;BME280;45999;48.808;9.182;2024-03-02T04:14:24;96899.88;;;4.49;100.00
113;BME280;45999;48.808;9.182;2024-03-02T04:16:50;96891.13;;;4.55;100.00
113;BME280;45999;48.808;9.182;2024-03-02T04:19:16;96895.13;;;4.64;100.00
113;BME280;45999;48.808;9.182;2024-03-02T04:21:43;96888.91;;;4.58;100.00
113;BME280;45999;48.808;9.182;2024-03-02T04:24:09;96890.53;;;4.53;100.00
113;BME280;45999;48.808;9.182;2024-03-02T04:26:35;96884.69;;;4.44;100.00
113;BME280;45999;48.808;9.182;2024-03-02T04:29:02;96888.97;;;4.45;100.00
113;BME280;45999;48.808;9.182;2024-03-02T04:31:28;96883.25;;;4.48;100.00
113;BME280;45999;48.808;9.182;2024-03-02T04:33:54;96880.44;;;4.50;100.00
113;BME280;45999;48.808;9.182;2024-03-02T04:36:21;96891.00;;;4.37;100.00
113;BME280;45999;48.808;9.182;2024-03-02T04:38:48;96887.81;;;4.28;100.00
113;BME280;45999;48.808;9.182;2024-03-02T04:41:15;96888.00;;;4.27;100.00
113;BME280;45999;48.808;9.182;2024-03-02T04:43:42;96889.25;;;4.18;100.00
113;BME280;45999;48.808;9.182;2024-03-02T04:46:08;96889.84;;;4.26;100.00
113;BME280;45999;48.808;9.182;2024-03-02T04:48:34;96891.25;;;4.29;100.00
113;BME280;45999;48.808;9.182;2024-03-02T04:51:01;96896.25;;;4.37;100.00
113;BME280;45999;48.808;9.182;2024-03-02T04:53:27;96891.00;;;4.37;100.00
113;BME280;45999;48.808;9.182;2024-03-02T04:55:54;96884.91;;;4.49;100.00
113;BME280;45999;48.808;9.182;2024-03-02T04:58:43;96895.84;;;4.40;100.00
113;BME280;45999;48.808;9.182;2024-03-02T05:01:09;96897.31;;;4.29;100.00
113;BME280;45999;48.808;9.182;2024-03-02T05:03:35;96904.19;;;4.30;100.00
113;BME280;45999;48.808;9.182;2024-03-02T05:06:02;96893.88;;;4.35;100.00
113;BME280;45999;48.808;9.182;2024-03-02T05:08:28;96896.69;;;4.34;100.00
113;BME280;45999;48.808;9.182;2024-03-02T05:10:55;96905.81;;;4.31;100.00
113;BME280;45999;48.808;9.182;2024-03-02T05:13:41;96892.72;;;4.12;100.00
113;BME280;45999;48.808;9.182;2024-03-02T05:16:06;96892.94;;;4.04;100.00
113;BME280;45999;48.808;9.182;2024-03-02T05:18:33;96889.47;;;4.10;100.00
113;BME280;45999;48.808;9.182;2024-03-02T05:20:59;96895.38;;;4.05;100.00
113;BME280;45999;48.808;9.182;2024-03-02T05:23:25;96896.16;;;4.06;100.00
113;BME280;45999;48.808;9.182;2024-03-02T05:25:52;96895.16;;;4.13;100.00
113;BME280;45999;48.808;9.182;2024-03-02T05:28:18;96894.31;;;4.13;100.00
113;BME280;45999;48.808;9.182;2024-03-02T05:30:44;96902.00;;;4.14;100.00
113;BME280;45999;48.808;9.182;2024-03-02T05:33:11;96900.81;;;4.04;100.00
113;BME280;45999;48.808;9.182;2024-03-02T05:35:38;96905.25;;;4.03;100.00
113;BME280;45999;48.808;9.182;2024-03-02T05:38:04;96898.41;;;3.96;100.00
113;BME280;45999;48.808;9.182;2024-03-02T05:40:31;96901.03;;;3.96;100.00
113;BME280;45999;48.808;9.182;2024-03-02T05:42:57;96907.31;;;3.95;100.00
113;BME280;45999;48.808;9.182;2024-03-02T05:45:23;96906.94;;;3.91;100.00
113;BME280;45999;48.808;9.182;2024-03-02T05:47:50;96905.69;;;4.00;100.00
113;BME280;45999;48.808;9.182;2024-03-02T05:50:16;96905.50;;;3.95;100.00
113;BME280;45999;48.808;9.182;2024-03-02T05:52:45;96906.91;;;3.98;100.00
113;BME280;45999;48.808;9.182;2024-03-02T05:55:12;96910.34;;;3.98;100.00
113;BME280;45999;48.808;9.182;2024-03-02T05:57:38;96908.72;;;4.04;100.00
113;BME280;45999;48.808;9.182;2024-03-02T06:00:28;96913.75;;;4.12;100.00
113;BME280;45999;48.808;9.182;2024-03-02T06:02:56;96913.13;;;4.10;100.00
113;BME280;45999;48.808;9.182;2024-03-02T06:05:23;96913.38;;;4.02;100.00
113;BME280;45999;48.808;9.182;2024-03-02T06:07:49;96922.06;;;4.09;100.00
113;BME280;45999;48.808;9.182;2024-03-02T06:10:16;96916.19;;;4.13;100.00
113;BME280;45999;48.808;9.182;2024-03-02T06:12:42;96924.91;;;3.94;100.00
113;BME280;45999;48.808;9.182;2024-03-02T06:15:09;96926.34;;;3.97;100.00
113;BME280;45999;48.808;9.182;2024-03-02T06:17:36;96917.41;;;4.11;100.00
113;BME280;45999;48.808;9.182;2024-03-02T06:20:02;96920.63;;;4.06;100.00
113;BME280;45999;48.808;9.182;2024-03-02T06:22:29;96912.31;;;4.29;100.00
113;BME280;45999;48.808;9.182;2024-03-02T06:24:55;96919.97;;;4.30;100.00
113;BME280;45999;48.808;9.182;2024-03-02T06:27:21;96914.47;;;4.38;100.00
113;BME280;45999;48.808;9.182;2024-03-02T06:29:48;96926.19;;;4.49;100.00
113;BME280;45999;48.808;9.182;2024-03-02T06:32:14;96921.13;;;4.47;100.00
113;BME280;45999;48.808;9.182;2024-03-02T06:34:41;96930.44;;;4.50;100.00
113;BME280;45999;48.808;9.182;2024-03-02T06:37:07;96936.03;;;4.60;100.00
113;BME280;45999;48.808;9.182;2024-03-02T06:39:33;96932.19;;;4.62;100.00
113;BME280;45999;48.808;9.182;2024-03-02T06:42:01;96935.81;;;4.68;100.00
113;BME280;45999;48.808;9.182;2024-03-02T06:44:28;96930.16;;;4.71;100.00
113;BME280;45999;48.808;9.182;2024-03-02T06:46:54;96928.72;;;4.75;100.00
113;BME280;45999;48.808;9.182;2024-03-02T06:49:20;96931.72;;;4.78;100.00
113;BME280;45999;48.808;9.182;2024-03-02T06:51:47;96930.09;;;4.84;100.00
113;BME280;45999;48.808;9.182;2024-03-02T06:54:13;96934.34;;;4.85;100.00
113;BME280;45999;48.808;9.182;2024-03-02T06:56:39;96940.41;;;4.85;100.00
113;BME280;45999;48.808;9.182;2024-03-02T06:59:06;96951.84;;;5.04;100.00
113;BME280;45999;48.808;9.182;2024-03-02T07:01:32;96939.88;;;5.08;100.00
113;BME280;45999;48.808;9.182;2024-03-02T07:03:59;96945.31;;;5.13;100.00
113;BME280;45999;48.808;9.182;2024-03-02T07:06:26;96942.69;;;5.13;100.00
113;BME280;45999;48.808;9.182;2024-03-02T07:08:52;96936.63;;;5.12;100.00
113;BME280;45999;48.808;9.182;2024-03-02T07:11:18;96940.84;;;5.20;100.00
113;BME280;45999;48.808;9.182;2024-03-02T07:13:45;96933.00;;;5.38;100.00
113;BME280;45999;48.808;9.182;2024-03-02T07:16:11;96942.31;;;5.40;100.00
113;BME280;45999;48.808;9.182;2024-03-02T07:18:51;96947.09;;;5.50;100.00
113;BME280;45999;48.808;9.182;2024-03-02T07:21:17;96941.72;;;5.63;100.00
113;BME280;45999;48.808;9.182;2024-03-02T07:23:44;96944.97;;;5.65;100.00
113;BME280;45999;48.808;9.182;2024-03-02T07:26:10;96937.81;;;5.72;100.00
113;BME280;45999;48.808;9.182;2024-03-02T07:28:37;96946.09;;;5.75;100.00
113;BME280;45999;48.808;9.182;2024-03-02T07:31:04;96946.47;;;5.79;100.00
113;BME280;45999;48.808;9.182;2024-03-02T07:33:31;96949.88;;;5.86;100.00
113;BME280;45999;48.808;9.182;2024-03-02T07:35:58;96948.31;;;6.03;100.00
113;BME280;45999;48.808;9.182;2024-03-02T07:38:25;96943.84;;;6.03;100.00
113;BME280;45999;48.808;9.182;2024-03-02T07:40:51;96947.91;;;6.06;100.00
113;BME280;45999;48.808;9.182;2024-03-02T07:43:18;96952.09;;;5.89;100.00
113;BME280;45999;48.808;9.182;2024-03-02T07:45:46;96944.91;;;5.96;100.00
113;BME280;45999;48.808;9.182;2024-03-02T07:48:12;96951.59;;;5.98;100.00
113;BME280;45999;48.808;9.182;2024-03-02T07:50:38;96957.84;;;6.04;100.00
113;BME280;45999;48.808;9.182;2024-03-02T07:53:05;96967.34;;;6.05;100.00
113;BME280;45999;48.808;9.182;2024-03-02T07:55:32;96957.63;;;6.05;100.00
113;BME280;45999;48.808;9.182;2024-03-02T07:58:00;96961.72;;;6.01;100.00
113;BME280;45999;48.808;9.182;2024-03-02T08:00:27;96964.97;;;6.03;100.00
113;BME280;45999;48.808;9.182;2024-03-02T08:02:54;96962.09;;;6.05;100.00
113;BME280;45999;48.808;9.182;2024-03-02T08:05:20;96965.06;;;6.15;100.00
113;BME280;45999;48.808;9.182;2024-03-02T08:07:47;96958.66;;;6.04;100.00
113;BME280;45999;48.808;9.182;2024-03-02T08:10:17;96960.94;;;6.01;100.00
113;BME280;45999;48.808;9.182;2024-03-02T08:12:44;96964.09;;;6.09;100.00
113;BME280;45999;48.808;9.182;2024-03-02T08:15:10;96957.00;;;6.10;100.00
113;BME280;45999;48.808;9.182;2024-03-02T08:17:38;96948.63;;;6.13;100.00
113;BME280;45999;48.808;9.182;2024-03-02T08:20:06;96957.16;;;6.15;100.00
113;BME280;45999;48.808;9.182;2024-03-02T08:22:33;96958.09;;;6.20;100.00
113;BME280;45999;48.808;9.182;2024-03-02T08:25:00;96953.13;;;6.30;100.00
113;BME280;45999;48.808;9.182;2024-03-02T08:27:27;96949.69;;;6.30;100.00
113;BME280;45999;48.808;9.182;2024-03-02T08:29:53;96952.41;;;6.41;100.00
113;BME280;45999;48.808;9.182;2024-03-02T08:32:20;96941.16;;;6.46;100.00
113;BME280;45999;48.808;9.182;2024-03-02T08:34:46;96946.44;;;6.64;100.00
113;BME280;45999;48.808;9.182;2024-03-02T08:37:12;96947.47;;;6.63;100.00
113;BME280;45999;48.808;9.182;2024-03-02T08:39:39;96945.28;;;6.78;100.00
113;BME280;45999;48.808;9.182;2024-03-02T08:42:05;96949.25;;;6.69;100.00
113;BME280;45999;48.808;9.182;2024-03-02T08:44:32;96956.56;;;6.85;100.00
113;BME280;45999;48.808;9.182;2024-03-02T08:46:58;96944.34;;;7.02;100.00
113;BME280;45999;48.808;9.182;2024-03-02T08:49:25;96953.59;;;7.11;100.00
113;BME280;45999;48.808;9.182;2024-03-02T08:51:51;96954.25;;;7.36;100.00
113;BME280;45999;48.808;9.182;2024-03-02T08:54:23;96939.34;;;7.53;100.00
113;BME280;45999;48.808;9.182;2024-03-02T08:56:50;96944.31;;;7.61;100.00
113;BME280;45999;48.808;9.182;2024-03-02T08:59:16;96942.34;;;7.56;100.00
113;BME280;45999;48.808;9.182;2024-03-02T09:01:43;96943.00;;;7.93;100.00
113;BME280;45999;48.808;9.182;2024-03-02T09:04:10;96948.16;;;7.99;100.00
113;BME280;45999;48.808;9.182;2024-03-02T09:06:36;96951.59;;;8.00;100.00
113;BME280;45999;48.808;9.182;2024-03-02T09:09:03;96945.63;;;8.04;100.00
113;BME280;45999;48.808;9.182;2024-03-02T09:11:29;96952.78;;;8.27;100.00
113;BME280;45999;48.808;9.182;2024-03-02T09:13:57;96948.63;;;8.42;100.00
113;BME280;45999;48.808;9.182;2024-03-02T09:16:24;96946.25;;;8.41;100.00
113;BME280;45999;48.808;9.182;2024-03-02T09:18:55;96947.50;;;8.61;100.00
113;BME280;45999;48.808;9.182;2024-03-02T09:21:22;96944.22;;;8.71;100.00
113;BME280;45999;48.808;9.182;2024-03-02T09:23:48;96943.78;;;8.62;100.00
113;BME280;45999;48.808;9.182;2024-03-02T09:26:15;96945.84;;;8.72;100.00
113;BME280;45999;48.808;9.182;2024-03-02T09:28:44;96946.03;;;8.93;100.00
113;BME280;45999;48.808;9.182;2024-03-02T09:31:11;96935.97;;;8.95;100.00
113;BME280;45999;48.808;9.182;2024-03-02T09:33:38;96939.50;;;9.12;100.00
113;BME280;45999;48.808;9.182;2024-03-02T09:36:05;96931.28;;;9.25;100.00
113;BME280;45999;48.808;9.182;2024-03-02T09:38:32;96940.31;;;9.41;100.00
113;BME280;45999;48.808;9.182;2024-03-02T09:41:00;96936.22;;;9.50;100.00
113;BME280;45999;48.808;9.182;2024-03-02T09:43:27;96938.28;;;9.48;100.00
113;BME280;45999;48.808;9.182;2024-03-02T09:45:54;96945.06;;;9.55;100.00
113;BME280;45999;48.808;9.182;2024-03-02T09:48:20;96933.00;;;9.64;100.00
113;BME280;45999;48.808;9.182;2024-03-02T09:50:47;96929.88;;;9.51;100.00
113;BME280;45999;48.808;9.182;2024-03-02T09:53:14;96923.75;;;9.83;100.00
113;BME280;45999;48.808;9.182;2024-03-02T09:55:46;96927.88;;;9.91;100.00
113;BME280;45999;48.808;9.182;2024-03-02T09:58:12;96938.59;;;10.12;100.00
113;BME280;45999;48.808;9.182;2024-03-02T10:00:39;96929.19;;;10.21;100.00
113;BME280;45999;48.808;9.182;2024-03-02T10:03:11;96926.69;;;10.15;100.00
113;BME280;45999;48.808;9.182;2024-03-02T10:05:38;96924.59;;;10.17;100.00
113;BME280;45999;48.808;9.182;2024-03-02T10:08:04;96920.81;;;10.51;100.00
113;BME280;45999;48.808;9.182;2024-03-02T10:10:39;96912.44;;;10.59;100.00
113;BME280;45999;48.808;9.182;2024-03-02T10:13:07;96914.91;;;10.65;100.00
113;BME280;45999;48.808;9.182;2024-03-02T10:15:35;96921.78;;;10.61;100.00
113;BME280;45999;48.808;9.182;2024-03-02T10:18:03;96917.00;;;10.85;100.00
113;BME280;45999;48.808;9.182;2024-03-02T10:20:30;96915.34;;;10.79;100.00
113;BME280;45999;48.808;9.182;2024-03-02T10:25:37;96906.81;;;10.77;100.00
113;BME280;45999;48.808;9.182;2024-03-02T10:28:04;96917.56;;;10.87;100.00
113;BME280;45999;48.808;9.182;2024-03-02T10:30:34;96903.50;;;10.91;100.00
113;BME280;45999;48.808;9.182;2024-03-02T10:33:02;96909.56;;;11.08;100.00
113;BME280;45999;48.808;9.182;2024-03-02T10:35:28;96906.72;;;10.72;100.00
113;BME280;45999;48.808;9.182;2024-03-02T10:37:58;96902.66;;;11.07;100.00
113;BME280;45999;48.808;9.182;2024-03-02T10:40:26;96901.63;;;11.13;100.00
113;BME280;45999;48.808;9.182;2024-03-02T10:42:53;96898.19;;;11.13;100.00
113;BME280;45999;48.808;9.182;2024-03-02T10:45:20;96889.59;;;11.32;100.00
113;BME280;45999;48.808;9.182;2024-03-02T10:47:47;96901.44;;;11.47;100.00
113;BME280;45999;48.808;9.182;2024-03-02T10:50:14;96893.88;;;11.60;100.00
113;BME280;45999;48.808;9.182;2024-03-02T10:52:40;96892.38;;;11.69;100.00
113;BME280;45999;48.808;9.182;2024-03-02T10:55:08;96883.34;;;11.75;100.00
113;BME280;45999;48.808;9.182;2024-03-02T10:57:45;96873.06;;;11.84;100.00
113;BME280;45999;48.808;9.182;2024-03-02T11:00:18;96876.97;;;11.76;100.00
113;BME280;45999;48.808;9.182;2024-03-02T11:02:57;96874.78;;;11.68;100.00
113;BME280;45999;48.808;9.182;2024-03-02T11:05:31;96865.59;;;11.86;100.00
113;BME280;45999;48.808;9.182;2024-03-02T11:08:02;96864.41;;;12.08;100.00
113;BME280;45999;48.808;9.182;2024-03-02T11:10:37;96866.50;;;12.43;100.00
113;BME280;45999;48.808;9.182;2024-03-02T11:13:09;96858.31;;;12.59;100.00
113;BME280;45999;48.808;9.182;2024-03-02T11:15:36;96862.53;;;12.50;100.00
113;BME280;45999;48.808;9.182;2024-03-02T11:18:05;96856.75;;;12.68;100.00
113;BME280;45999;48.808;9.182;2024-03-02T11:20:36;96853.50;;;12.56;100.00
113;BME280;45999;48.808;9.182;2024-03-02T11:23:08;96850.78;;;12.46;100.00
113;BME280;45999;48.808;9.182;2024-03-02T11:25:35;96844.94;;;12.49;100.00
113;BME280;45999;48.808;9.182;2024-03-02T11:28:07;96842.31;;;12.59;100.00
113;BME280;45999;48.808;9.182;2024-03-02T11:33:08;96833.88;;;12.82;100.00
113;BME280;45999;48.808;9.182;2024-03-02T11:35:36;96825.31;;;12.80;100.00
113;BME280;45999;48.808;9.182;2024-03-02T11:38:03;96822.06;;;12.58;100.00
113;BME280;45999;48.808;9.182;2024-03-02T11:40:30;96819.41;;;12.58;100.00
113;BME280;45999;48.808;9.182;2024-03-02T11:42:57;96813.53;;;12.71;100.00
113;BME280;45999;48.808;9.182;2024-03-02T11:45:26;96816.28;;;12.86;100.00
113;BME280;45999;48.808;9.182;2024-03-02T11:47:57;96811.72;;;12.92;100.00
113;BME280;45999;48.808;9.182;2024-03-02T11:50:36;96801.63;;;12.94;100.00
113;BME280;45999;48.808;9.182;2024-03-02T11:53:07;96808.59;;;13.10;83.60
113;BME280;45999;48.808;9.182;2024-03-02T11:55:38;96797.41;;;13.08;78.49
113;BME280;45999;48.808;9.182;2024-03-02T11:58:06;96798.47;;;13.07;78.99
113;BME280;45999;48.808;9.182;2024-03-02T12:00:33;96789.66;;;13.16;77.58
113;BME280;45999;48.808;9.182;2024-03-02T12:03:10;96780.63;;;13.17;76.77
113;BME280;45999;48.808;9.182;2024-03-02T12:05:38;96780.06;;;13.25;73.23
113;BME280;45999;48.808;9.182;2024-03-02T12:08:06;96779.53;;;13.23;73.85
113;BME280;45999;48.808;9.182;2024-03-02T12:10:34;96784.63;;;13.25;72.22
113;BME280;45999;48.808;9.182;2024-03-02T12:15:31;96773.13;;;13.39;70.60
113;BME280;45999;48.808;9.182;2024-03-02T12:17:59;96760.06;;;13.43;67.75
113;BME280;45999;48.808;9.182;2024-03-02T12:20:28;96758.19;;;13.63;69.87
113;BME280;45999;48.808;9.182;2024-03-02T12:22:58;96765.38;;;13.63;68.94
113;BME280;45999;48.808;9.182;2024-03-02T12:25:25;96762.16;;;13.71;68.46
113;BME280;45999;48.808;9.182;2024-03-02T12:27:57;96761.91;;;13.72;68.31
113;BME280;45999;48.808;9.182;2024-03-02T12:30:27;96746.09;;;13.86;66.82
113;BME280;45999;48.808;9.182;2024-03-02T12:32:55;96743.97;;;13.78;70.44
113;BME280;45999;48.808;9.182;2024-03-02T12:35:21;96749.31;;;13.78;66.45
113;BME280;45999;48.808;9.182;2024-03-02T12:37:49;96739.44;;;13.83;66.12
113;BME280;45999;48.808;9.182;2024-03-02T12:40:19;96739.94;;;13.95;65.66
113;BME280;45999;48.808;9.182;2024-03-02T12:42:48;96733.03;;;13.74;66.71
113;BME280;45999;48.808;9.182;2024-03-02T12:45:15;96724.97;;;13.99;64.68
113;BME280;45999;48.808;9.182;2024-03-02T12:47:48;96725.44;;;14.11;64.52
113;BME280;45999;48.808;9.182;2024-03-02T12:50:15;96727.94;;;13.88;68.26
113;BME280;45999;48.808;9.182;2024-03-02T12:52:41;96720.16;;;13.96;66.58
113;BME280;45999;48.808;9.182;2024-03-02T12:55:10;96720.13;;;14.06;64.05
113;BME280;45999;48.808;9.182;2024-03-02T12:57:37;96722.84;;;13.91;67.92
113;BME280;45999;48.808;9.182;2024-03-02T13:00:06;96725.19;;;14.08;66.79
113;BME280;45999;48.808;9.182;2024-03-02T13:02:35;96720.13;;;14.06;66.24
113;BME280;45999;48.808;9.182;2024-03-02T13:05:02;96711.56;;;14.14;64.43
113;BME280;45999;48.808;9.182;2024-03-02T13:07:29;96719.81;;;14.23;64.72
113;BME280;45999;48.808;9.182;2024-03-02T13:09:56;96715.25;;;14.28;64.91
113;BME280;45999;48.808;9.182;2024-03-02T13:12:24;96714.47;;;14.33;63.99
113;BME280;45999;48.808;9.182;2024-03-02T13:14:54;96707.00;;;14.15;63.57
113;BME280;45999;48.808;9.182;2024-03-02T13:17:20;96708.34;;;14.22;63.57
113;BME280;45999;48.808;9.182;2024-03-02T13:19:55;96699.81;;;14.05;63.74
113;BME280;45999;48.808;9.182;2024-03-02T13:22:22;96704.53;;;14.33;62.65
113;BME280;45999;48.808;9.182;2024-03-02T13:24:49;96705.63;;;14.32;60.50
113;BME280;45999;48.808;9.182;2024-03-02T13:27:16;96706.44;;;14.18;61.86
113;BME280;45999;48.808;9.182;2024-03-02T13:29:45;96702.47;;;14.20;62.47
113;BME280;45999;48.808;9.182;2024-03-02T13:32:11;96698.44;;;14.23;62.74